Main page
METAR-TAF:

METAR-TAF

Airports :

Pontoise, France

Pontoise – Cormeilles Aerodrome

latitude: 49-05-48N, longitude: 002-02-27E, elevation: 99 m

Current weather observation

The report was made 43 minutes ago, at 01:30 UTC
Wind 4 kt from the West/Southwest
Temperature 12°C
Humidity 94%
Pressure 997 hPa
Visibility 10 km or more
no clouds below 1500 m and no cumulonimbus

METAR: LFPT 290130Z AUTO 25004KT CAVOK 12/11 Q0997

Time: 04:13 (02:13 UTC)


TAF: missing

Weather observations and forecasts of more than 4000 airports (METAR and TAF reports).

The available stations are represented by yellow and red dots on the map.

Hover mouse over dot to see the name of the station.

Then click to see weather observations and forecasts.

To change the map : click on the green buttons with a black cross to zoom in, on the green button with a dash to zoom out, or on the green arrows for adjacent maps.


METAR-TAF: